Time;durP1;ratioP1;P1;durP2;ratioP2;P2;SDS_P1;SDS_P2;PMS_P1;PMS_P2;Temp;Humidity;BMP_temperature;BMP_pressure;BME280_temperature;BME280_humidity;BME280_pressure;Samples;Min_cycle;Max_cycle;Signal;HPM_P1;HPM_P2
2023/05/23 00:01:36;;;;;;;27.10;13.15;;;13.40;99.90;;;;;;5148014;27;20489;-40
2023/05/23 00:04:19;;;;;;;19.73;11.82;;;13.40;99.90;;;;;;5123396;27;20050;-39
2023/05/23 00:06:49;;;;;;;24.40;12.82;;;13.40;99.90;;;;;;5110847;27;20043;-39
2023/05/23 00:09:38;;;;;;;23.10;12.27;;;13.40;99.90;;;;;;5117326;27;20442;-40
2023/05/23 00:12:19;;;;;;;22.73;11.38;;;13.50;99.90;;;;;;5121238;27;20055;-40
2023/05/23 00:14:46;;;;;;;23.38;11.23;;;13.50;99.90;;;;;;5144442;27;20058;-40
2023/05/23 00:17:24;;;;;;;;;;;13.40;99.90;;;;;;5130958;27;20114;-39
2023/05/23 00:19:59;;;;;;;26.35;11.38;;;13.50;99.90;;;;;;5134993;27;20035;-39
2023/05/23 00:22:29;;;;;;;26.23;11.23;;;13.50;99.90;;;;;;5137281;27;20041;-40
2023/05/23 00:24:56;;;;;;;22.13;11.43;;;13.40;99.90;;;;;;5141248;27;20039;-40
2023/05/23 00:27:22;;;;;;;19.27;10.48;;;13.40;99.90;;;;;;5132545;27;20038;-40
2023/05/23 00:29:53;;;;;;;22.50;12.00;;;13.40;99.90;;;;;;5141654;27;20046;-39
2023/05/23 00:32:20;;;;;;;19.38;10.00;;;13.50;99.90;;;;;;5147427;27;20037;-40
2023/05/23 00:34:47;;;;;;;15.23;9.50;;;13.40;99.90;;;;;;5141198;27;20100;-40
2023/05/23 00:37:19;;;;;;;20.08;11.43;;;13.40;99.90;;;;;;5142806;27;20065;-39
2023/05/23 00:40:00;;;;;;;20.52;11.23;;;13.40;99.90;;;;;;5145769;27;20082;-39
2023/05/23 00:42:44;;;;;;;21.77;11.90;;;13.40;99.90;;;;;;5133536;27;20107;-40
2023/05/23 00:45:17;;;;;;;21.20;12.45;;;13.40;99.90;;;;;;5145546;27;20134;-40
2023/05/23 00:47:45;;;;;;;14.82;9.88;;;13.40;99.90;;;;;;5141443;27;20065;-39
2023/05/23 00:50:21;;;;;;;20.80;12.88;;;13.30;99.90;;;;;;5118092;27;20035;-39
2023/05/23 00:52:48;;;;;;;;;;;13.40;99.90;;;;;;5139699;27;20042;-39
2023/05/23 00:55:17;;;;;;;20.40;12.57;;;13.40;99.90;;;;;;5141913;27;20377;-40
2023/05/23 00:57:45;;;;;;;16.15;11.20;;;13.40;99.90;;;;;;5125898;27;20126;-40
2023/05/23 01:00:11;;;;;;;;;;;13.30;99.90;;;;;;5127462;27;20078;-40
2023/05/23 01:02:52;;;;;;;17.50;10.98;;;13.30;99.90;;;;;;5121844;27;19915;-40
2023/05/23 01:05:23;;;;;;;14.32;9.32;;;13.20;99.90;;;;;;5140809;27;20461;-40
2023/05/23 01:07:52;;;;;;;16.00;9.07;;;13.30;99.90;;;;;;5128613;27;20191;-39
2023/05/23 01:10:29;;;;;;;15.80;9.60;;;13.20;99.90;;;;;;5138307;27;20118;-40
2023/05/23 01:13:37;;;;;;;13.65;7.88;;;13.20;99.90;;;;;;5124748;27;20090;-39
2023/05/23 01:16:40;;;;;;;11.80;6.68;;;13.20;99.90;;;;;;5144088;27;20046;-39
2023/05/23 01:19:45;;;;;;;15.60;7.72;;;13.20;99.90;;;;;;5141801;27;20472;-39
2023/05/23 01:22:34;;;;;;;12.95;6.53;;;13.20;99.90;;;;;;5142338;27;20031;-39
2023/05/23 01:25:35;;;;;;;12.52;6.25;;;13.20;99.90;;;;;;5140639;27;20520;-40
2023/05/23 01:28:13;;;;;;;9.70;4.75;;;13.10;99.90;;;;;;5146109;27;20030;-39
2023/05/23 01:31:10;;;;;;;8.95;5.57;;;13.00;99.90;;;;;;5124743;27;20054;-40
2023/05/23 01:33:49;;;;;;;11.73;6.07;;;13.00;99.90;;;;;;5137030;27;20346;-40
2023/05/23 01:36:20;;;;;;;11.48;5.68;;;13.00;99.90;;;;;;5126624;27;20398;-39
2023/05/23 01:38:45;;;;;;;16.35;5.68;;;12.90;99.90;;;;;;5145711;27;20333;-40
2023/05/23 01:41:12;;;;;;;16.98;6.93;;;12.90;99.90;;;;;;5126692;27;20082;-40
2023/05/23 01:43:57;;;;;;;17.08;6.13;;;12.80;99.90;;;;;;5113351;27;20046;-39
2023/05/23 01:46:24;;;;;;;18.83;6.90;;;12.80;99.90;;;;;;5140467;27;20038;-40
2023/05/23 01:48:52;;;;;;;18.20;7.78;;;12.70;99.90;;;;;;5107974;27;20122;-40
2023/05/23 01:51:27;;;;;;;19.70;6.90;;;12.70;99.90;;;;;;5109686;27;20053;-40
2023/05/23 01:53:55;;;;;;;16.65;6.05;;;12.70;99.90;;;;;;5134902;27;20069;-40
2023/05/23 01:56:23;;;;;;;17.38;6.65;;;12.60;99.90;;;;;;5134651;27;20041;-40
2023/05/23 01:58:54;;;;;;;18.67;7.07;;;12.60;99.90;;;;;;5146384;27;20038;-40
2023/05/23 02:01:22;;;;;;;12.57;6.35;;;12.50;99.90;;;;;;5122545;27;20066;-40
2023/05/23 02:03:52;;;;;;;20.15;7.13;;;12.50;99.90;;;;;;5123318;27;20155;-40
2023/05/23 02:06:23;;;;;;;17.05;7.38;;;12.40;99.90;;;;;;5128064;27;20074;-39
2023/05/23 02:08:58;;;;;;;13.68;5.25;;;12.40;99.90;;;;;;5135107;27;20046;-40
2023/05/23 02:11:37;;;;;;;14.32;6.45;;;12.40;99.90;;;;;;5142533;27;20039;-40
2023/05/23 02:14:15;;;;;;;18.40;7.95;;;12.30;99.90;;;;;;5137902;27;20125;-40
2023/05/23 02:16:41;;;;;;;18.58;6.70;;;12.30;99.90;;;;;;5146575;27;20050;-40
2023/05/23 02:19:16;;;;;;;17.38;8.07;;;12.30;99.90;;;;;;5144465;27;20128;-40
2023/05/23 02:21:52;;;;;;;14.73;6.28;;;12.20;99.90;;;;;;5119305;27;20047;-40
2023/05/23 02:24:18;;;;;;;19.42;6.93;;;12.20;99.90;;;;;;5140747;27;20039;-40
2023/05/23 02:26:44;;;;;;;14.80;6.07;;;12.20;99.90;;;;;;5140481;27;20105;-40
2023/05/23 02:29:10;;;;;;;14.90;5.45;;;12.20;99.90;;;;;;5138518;27;20125;-40
2023/05/23 02:32:02;;;;;;;12.98;5.18;;;12.20;99.90;;;;;;5140719;27;20099;-40
2023/05/23 02:34:57;;;;;;;10.95;5.10;;;12.10;99.90;;;;;;5144340;27;20038;-40
2023/05/23 02:38:26;;;;;;;12.65;4.85;;;12.10;99.90;;;;;;5120831;27;20670;-40
2023/05/23 02:45:28;;;;;;;13.98;5.03;;;11.90;99.90;;;;;;5113537;22;20107;-85
2023/05/23 02:47:54;;;;;;;14.00;5.20;;;11.80;99.90;;;;;;5028396;28;20057;-85
2023/05/23 02:50:20;;;;;;;10.70;5.25;;;;;;;;;;4996989;28;20045;-88
2023/05/23 02:52:46;;;;;;;12.68;5.18;;;11.70;99.90;;;;;;5015295;28;20041;-85
2023/05/23 02:55:11;;;;;;;16.08;5.68;;;11.70;99.90;;;;;;5011420;28;20041;-84
2023/05/23 02:57:39;;;;;;;13.82;6.43;;;11.60;99.90;;;;;;4980817;28;20068;-87
2023/05/23 03:00:05;;;;;;;;;;;11.60;99.90;;;;;;5008211;28;20045;-86
2023/05/23 03:02:31;;;;;;;18.10;6.05;;;11.60;99.90;;;;;;5028836;28;19932;-82
2023/05/23 03:04:56;;;;;;;13.35;5.80;;;11.60;99.90;;;;;;5012369;28;20067;-87
2023/05/23 03:07:22;;;;;;;18.60;7.18;;;11.60;99.90;;;;;;4997338;28;20099;-86
2023/05/23 03:09:48;;;;;;;22.50;6.82;;;11.60;99.90;;;;;;5002996;28;20048;-84
2023/05/23 03:12:13;;;;;;;14.23;5.90;;;11.60;99.90;;;;;;5013777;28;20044;-87
2023/05/23 03:14:39;;;;;;;13.10;5.68;;;11.60;99.90;;;;;;5026126;28;20135;-83
2023/05/23 03:17:06;;;;;;;13.85;5.00;;;11.60;99.90;;;;;;5006988;28;20036;-82
2023/05/23 03:19:32;;;;;;;15.30;6.18;;;11.60;99.90;;;;;;5008346;28;20049;-89
2023/05/23 03:21:58;;;;;;;12.82;5.60;;;11.60;99.90;;;;;;5007181;28;20033;-83
2023/05/23 03:24:23;;;;;;;17.02;4.93;;;11.60;99.90;;;;;;5003292;28;20045;-83
2023/05/23 03:26:49;;;;;;;15.63;5.60;;;11.60;99.90;;;;;;5015332;28;20117;-83
2023/05/23 03:29:15;;;;;;;11.70;4.45;;;11.70;99.90;;;;;;5002034;28;20073;-81
2023/05/23 03:31:41;;;;;;;12.75;5.35;;;11.60;99.90;;;;;;4994409;28;20060;-85
2023/05/23 03:34:07;;;;;;;14.07;5.20;;;11.70;99.90;;;;;;5037602;28;20041;-81
2023/05/23 03:36:38;;;;;;;10.10;4.57;;;11.70;99.90;;;;;;4994704;28;20157;-87
2023/05/23 03:39:04;;;;;;;13.57;4.80;;;11.70;99.90;;;;;;5000312;28;20092;-85
2023/05/23 03:41:30;;;;;;;9.55;4.43;;;11.70;99.90;;;;;;5041809;28;20123;-81
2023/05/23 03:43:56;;;;;;;8.57;3.15;;;11.70;99.90;;;;;;5026173;28;20364;-86
2023/05/23 03:46:22;;;;;;;12.95;4.65;;;11.70;99.90;;;;;;5014696;28;20448;-85
2023/05/23 03:48:48;;;;;;;13.25;5.68;;;11.60;99.90;;;;;;4976473;28;20061;-87
2023/05/23 03:51:13;;;;;;;10.55;3.25;;;11.60;99.90;;;;;;4994494;28;20523;-92
2023/05/23 03:53:39;;;;;;;13.30;4.20;;;11.60;99.90;;;;;;4991689;28;20061;-84
2023/05/23 03:56:05;;;;;;;11.52;5.05;;;11.60;99.90;;;;;;4996157;28;20045;-85
2023/05/23 03:58:31;;;;;;;11.80;4.85;;;11.60;99.90;;;;;;4993338;28;20052;-85
2023/05/23 04:00:56;;;;;;;12.82;4.82;;;11.60;99.90;;;;;;4990241;28;20037;-85
2023/05/23 04:03:22;;;;;;;12.27;4.30;;;11.50;99.90;;;;;;5003345;28;20515;-86
2023/05/23 04:05:48;;;;;;;12.52;3.72;;;11.60;99.90;;;;;;5023417;28;20084;-81
2023/05/23 04:08:14;;;;;;;8.00;3.05;;;11.50;99.90;;;;;;5007527;28;20323;-84
2023/05/23 04:10:40;;;;;;;10.52;4.43;;;11.50;99.90;;;;;;4974976;28;20092;-81
2023/05/23 04:13:06;;;;;;;11.55;4.00;;;11.50;99.90;;;;;;5007672;28;20053;-85
2023/05/23 04:15:33;;;;;;;13.75;3.95;;;11.60;99.90;;;;;;4979266;28;20075;-79
2023/05/23 04:17:59;;;;;;;8.57;3.65;;;11.60;99.90;;;;;;4992488;28;20081;-82
2023/05/23 04:20:25;;;;;;;8.88;2.60;;;11.60;99.90;;;;;;5009006;28;20037;-82
2023/05/23 04:22:51;;;;;;;10.00;3.38;;;11.50;99.90;;;;;;5007733;28;20462;-87
2023/05/23 04:25:17;;;;;;;8.75;3.03;;;11.50;99.90;;;;;;5010944;28;20071;-86
2023/05/23 04:27:44;;;;;;;13.18;3.63;;;11.50;99.90;;;;;;5012432;28;20049;-81
2023/05/23 04:30:10;;;;;;;10.32;3.25;;;11.50;99.90;;;;;;5011257;28;20136;-84
2023/05/23 04:32:37;;;;;;;13.75;3.00;;;11.50;99.90;;;;;;4993499;28;20452;-88
2023/05/23 04:35:03;;;;;;;7.63;2.10;;;11.50;99.90;;;;;;4994321;28;20057;-85
2023/05/23 04:37:31;;;;;;;11.43;2.63;;;11.50;99.90;;;;;;4979208;28;20065;-81
2023/05/23 04:39:58;;;;;;;10.77;2.10;;;11.50;99.90;;;;;;4986005;28;20046;-84
2023/05/23 04:42:24;;;;;;;7.72;2.40;;;11.50;99.90;;;;;;4991199;28;20065;-83
2023/05/23 04:44:51;;;;;;;8.35;3.10;;;11.50;99.90;;;;;;4995792;28;20092;-82
2023/05/23 04:47:18;;;;;;;7.97;2.67;;;11.50;99.90;;;;;;5024851;28;20053;-85
2023/05/23 04:49:44;;;;;;;9.27;3.13;;;11.50;99.90;;;;;;5012872;28;20080;-85
2023/05/23 04:52:10;;;;;;;9.30;3.17;;;11.40;99.90;;;;;;5026324;28;20467;-82
2023/05/23 04:54:36;;;;;;;12.15;4.15;;;11.40;99.90;;;;;;4996625;28;20187;-83
2023/05/23 04:57:02;;;;;;;15.18;5.03;;;11.40;99.90;;;;;;5029899;28;20044;-83
2023/05/23 04:59:28;;;;;;;12.75;5.38;;;11.30;99.90;;;;;;4995136;28;20080;-87
2023/05/23 05:01:54;;;;;;;7.68;3.88;;;11.30;99.90;;;;;;5026504;28;20076;-84
2023/05/23 05:04:21;;;;;;;11.18;6.15;;;11.30;99.90;;;;;;5029588;28;20037;-87
2023/05/23 05:06:47;;;;;;;12.38;5.80;;;11.20;99.90;;;;;;5032898;28;20060;-82
2023/05/23 05:09:13;;;;;;;16.80;7.20;;;11.20;99.90;;;;;;5028542;28;20411;-83
2023/05/23 05:11:40;;;;;;;14.02;6.38;;;11.10;99.90;;;;;;5014344;28;20403;-80
2023/05/23 05:14:05;;;;;;;12.35;4.50;;;11.10;99.90;;;;;;5037365;28;20080;-80
2023/05/23 05:16:31;;;;;;;16.58;5.75;;;11.10;99.90;;;;;;5044538;28;20068;-81
2023/05/23 05:18:57;;;;;;;13.35;5.05;;;11.10;99.90;;;;;;5026667;28;20056;-81
2023/05/23 05:21:23;;;;;;;11.75;5.38;;;11.10;99.90;;;;;;5034740;28;20037;-81
2023/05/23 05:23:50;;;;;;;10.02;4.53;;;11.10;99.90;;;;;;5029448;28;20411;-84
2023/05/23 05:26:19;;;;;;;9.82;4.65;;;11.00;99.90;;;;;;5023748;28;20060;-82
2023/05/23 05:28:45;;;;;;;7.80;3.65;;;10.90;99.90;;;;;;5011108;28;20048;-81
2023/05/23 05:31:13;;;;;;;10.95;4.50;;;10.90;99.90;;;;;;5024845;28;20037;-82
2023/05/23 05:33:40;;;;;;;12.63;6.13;;;10.90;99.90;;;;;;4997114;28;20515;-85
2023/05/23 05:36:07;;;;;;;13.37;4.70;;;10.90;99.90;;;;;;5013624;28;20086;-84
2023/05/23 05:38:33;;;;;;;11.63;4.88;;;10.90;99.90;;;;;;5013072;28;20503;-84
2023/05/23 05:40:59;;;;;;;11.23;4.60;;;10.90;99.90;;;;;;5029238;28;20095;-82
2023/05/23 05:43:28;;;;;;;12.38;4.68;;;10.90;99.90;;;;;;4999632;28;20497;-85
2023/05/23 05:45:53;;;;;;;10.88;4.85;;;10.90;99.90;;;;;;5004578;28;20688;-83
2023/05/23 05:48:19;;;;;;;9.02;3.10;;;10.90;99.90;;;;;;5024055;28;20132;-80
2023/05/23 05:50:45;;;;;;;11.90;3.40;;;10.90;99.90;;;;;;4991679;28;20053;-81
2023/05/23 05:53:12;;;;;;;8.65;4.05;;;10.90;99.90;;;;;;5010955;28;20037;-83
2023/05/23 05:55:38;;;;;;;10.27;3.50;;;10.90;99.90;;;;;;5025529;28;20060;-83
2023/05/23 05:58:04;;;;;;;7.28;3.38;;;10.90;99.90;;;;;;5027287;28;20372;-80
2023/05/23 06:00:30;;;;;;;10.27;3.45;;;10.90;99.90;;;;;;5025658;28;20128;-83
2023/05/23 06:02:56;;;;;;;9.85;2.88;;;10.80;99.90;;;;;;5009243;28;20188;-79
2023/05/23 06:05:22;;;;;;;6.97;2.60;;;10.80;99.90;;;;;;5027336;28;20074;-80
2023/05/23 06:07:49;;;;;;;7.65;2.50;;;10.80;99.90;;;;;;5007524;28;20056;-80
2023/05/23 06:10:15;;;;;;;10.55;3.40;;;10.70;99.90;;;;;;5016232;28;20690;-81
2023/05/23 06:12:41;;;;;;;7.55;3.28;;;10.70;99.90;;;;;;5011262;28;20044;-79
2023/05/23 06:15:08;;;;;;;5.85;2.25;;;10.60;99.90;;;;;;5008894;28;20325;-82
2023/05/23 06:17:34;;;;;;;5.55;2.15;;;10.60;99.90;;;;;;5040910;28;20542;-80
2023/05/23 06:20:00;;;;;;;9.55;3.10;;;10.60;99.90;;;;;;5027536;28;20574;-80
2023/05/23 06:22:25;;;;;;;9.55;3.28;;;10.50;99.90;;;;;;4994273;28;20123;-83
2023/05/23 06:24:51;;;;;;;9.40;3.33;;;10.60;99.90;;;;;;5045108;28;20170;-80
2023/05/23 06:27:17;;;;;;;10.35;3.22;;;10.60;99.90;;;;;;5029468;28;20055;-81
2023/05/23 06:29:42;;;;;;;9.60;3.33;;;10.60;99.90;;;;;;5009788;28;20064;-78
2023/05/23 06:32:08;;;;;;;10.65;2.65;;;10.60;99.90;;;;;;5029328;28;20037;-78
2023/05/23 06:34:34;;;;;;;8.18;2.78;;;10.60;99.90;;;;;;5028905;28;20045;-78
2023/05/23 06:37:00;;;;;;;12.65;4.10;;;10.60;99.90;;;;;;5046008;28;20269;-82
2023/05/23 06:39:26;;;;;;;11.57;3.70;;;10.70;99.90;;;;;;5010853;28;20057;-80
2023/05/23 06:41:53;;;;;;;11.23;3.25;;;10.80;99.90;;;;;;5009929;28;20060;-86
2023/05/23 06:44:18;;;;;;;12.23;2.92;;;10.90;99.90;;;;;;5027060;28;20053;-79
2023/05/23 06:46:45;;;;;;;7.93;2.10;;;10.90;99.90;;;;;;5011216;28;20049;-81
2023/05/23 06:49:11;;;;;;;8.82;2.63;;;10.90;99.90;;;;;;5027057;28;20353;-81
2023/05/23 06:51:37;;;;;;;10.18;2.95;;;10.90;99.90;;;;;;5028391;28;20045;-81
2023/05/23 06:54:04;;;;;;;11.50;2.80;;;11.00;99.90;;;;;;5024462;28;20385;-81
2023/05/23 06:56:29;;;;;;;7.05;2.42;;;11.10;99.90;;;;;;5007519;28;20038;-82
2023/05/23 06:58:55;;;;;;;14.75;3.38;;;11.10;99.90;;;;;;5026999;28;20103;-83
2023/05/23 07:01:21;;;;;;;10.57;3.50;;;11.10;99.90;;;;;;4995265;28;20072;-82
2023/05/23 07:03:47;;;;;;;11.93;3.17;;;11.10;99.90;;;;;;4992981;28;20116;-82
2023/05/23 07:06:13;;;;;;;9.30;3.10;;;11.10;99.90;;;;;;5044469;28;20044;-81
2023/05/23 07:08:38;;;;;;;7.55;2.58;;;11.00;99.90;;;;;;5028721;28;20053;-80
2023/05/23 07:11:05;;;;;;;10.23;2.00;;;11.00;99.90;;;;;;5044050;28;20045;-80
2023/05/23 07:13:31;;;;;;;10.15;3.08;;;11.00;99.90;;;;;;5026173;28;20037;-81
2023/05/23 07:15:57;;;;;;;8.23;2.45;;;11.00;99.90;;;;;;5010576;28;20041;-75
2023/05/23 07:18:23;;;;;;;10.75;2.42;;;11.00;99.90;;;;;;5027460;28;20106;-80
2023/05/23 07:20:49;;;;;;;11.10;2.55;;;11.00;99.90;;;;;;5009647;28;20088;-79
2023/05/23 07:23:15;;;;;;;13.48;3.65;;;11.00;99.90;;;;;;5001136;28;20075;-78
2023/05/23 07:25:41;;;;;;;8.40;2.83;;;11.10;99.90;;;;;;5023589;28;20127;-78
2023/05/23 07:28:08;;;;;;;9.05;2.30;;;11.10;99.90;;;;;;5033542;28;20491;-82
2023/05/23 07:30:33;;;;;;;13.05;3.08;;;11.00;99.90;;;;;;4994608;28;20399;-77
2023/05/23 07:32:59;;;;;;;9.00;2.30;;;11.00;99.90;;;;;;5032111;28;20041;-81
2023/05/23 07:35:25;;;;;;;14.95;3.08;;;11.10;99.90;;;;;;5015127;28;20394;-81
2023/05/23 07:37:54;;;;;;;10.00;2.83;;;11.50;99.90;;;;;;5008096;28;20514;-81
2023/05/23 07:40:23;;;;;;;7.95;2.10;;;11.50;99.90;;;;;;5006953;28;20044;-79
2023/05/23 07:42:49;;;;;;;11.52;2.83;;;11.60;99.90;;;;;;5022435;28;20442;-82
2023/05/23 07:45:15;;;;;;;8.90;2.30;;;11.50;99.90;;;;;;5011482;28;20032;-79
2023/05/23 07:47:41;;;;;;;12.32;2.70;;;11.40;99.90;;;;;;4981877;28;20045;-79
2023/05/23 07:50:08;;;;;;;16.45;2.53;;;11.70;99.90;;;;;;4998003;28;20037;-81
2023/05/23 07:52:35;;;;;;;6.38;2.35;;;12.30;99.90;;;;;;5012295;28;20075;-82
2023/05/23 07:55:01;;;;;;;11.05;2.70;;;12.70;99.90;;;;;;5028681;28;20060;-79
2023/05/23 07:57:26;;;;;;;10.32;2.42;;;12.80;99.90;;;;;;5014889;28;20037;-80
2023/05/23 07:59:52;;;;;;;13.32;2.97;;;12.70;99.90;;;;;;5029215;28;20431;-82
2023/05/23 08:02:19;;;;;;;11.88;2.90;;;12.50;99.90;;;;;;5011303;28;20029;-82
2023/05/23 08:04:46;;;;;;;10.23;2.15;;;12.30;99.90;;;;;;5046288;28;20045;-80
2023/05/23 08:07:12;;;;;;;8.75;2.58;;;12.30;99.90;;;;;;5035761;28;20049;-81
2023/05/23 08:09:41;;;;;;;7.07;2.10;;;12.10;99.90;;;;;;5027560;28;20094;-80
2023/05/23 08:12:08;;;;;;;8.57;2.45;;;12.00;99.90;;;;;;5005640;28;20537;-78
2023/05/23 08:14:35;;;;;;;11.23;2.92;;;12.20;99.90;;;;;;5027251;28;20543;-80
2023/05/23 08:17:01;;;;;;;11.48;2.67;;;12.30;99.90;;;;;;5010194;28;20052;-83
2023/05/23 08:19:27;;;;;;;7.60;2.25;;;12.40;99.90;;;;;;5013542;28;20516;-81
2023/05/23 08:21:53;;;;;;;10.40;2.78;;;12.80;99.90;;;;;;4996858;28;20045;-86
2023/05/23 08:24:20;;;;;;;12.63;3.40;;;12.90;99.90;;;;;;5025108;28;20033;-79
2023/05/23 08:26:46;;;;;;;14.23;3.40;;;12.80;99.90;;;;;;5027953;28;20060;-84
2023/05/23 08:29:13;;;;;;;6.70;1.75;;;12.70;99.90;;;;;;4994564;28;20042;-81
2023/05/23 08:31:39;;;;;;;15.70;2.75;;;12.70;99.90;;;;;;5030278;28;20048;-80
2023/05/23 08:34:05;;;;;;;7.60;2.83;;;12.70;99.90;;;;;;4993597;28;20068;-80
2023/05/23 08:36:33;;;;;;;13.70;1.70;;;13.00;99.90;;;;;;4997799;28;20744;-81
2023/05/23 08:38:59;;;;;;;12.73;2.10;;;12.90;99.90;;;;;;5029942;28;20079;-78
2023/05/23 08:41:28;;;;;;;12.98;3.00;;;12.80;99.90;;;;;;5042887;28;20132;-80
2023/05/23 08:43:54;;;;;;;12.80;2.45;;;12.60;99.90;;;;;;5026445;28;20052;-80
2023/05/23 08:46:21;;;;;;;9.25;1.88;;;12.60;99.90;;;;;;5022274;28;20310;-81
2023/05/23 08:48:53;;;;;;;8.95;2.35;;;12.60;99.90;;;;;;5047314;28;20056;-82
2023/05/23 08:51:21;;;;;;;7.10;1.92;;;12.90;99.90;;;;;;5065444;28;20040;-81
2023/05/23 08:53:48;;;;;;;7.40;2.92;;;12.90;99.90;;;;;;5044635;28;20349;-81
2023/05/23 08:56:15;;;;;;;9.60;2.10;;;12.90;99.90;;;;;;5049636;28;20093;-83
2023/05/23 08:58:42;;;;;;;11.18;2.85;;;13.10;99.90;;;;;;5044963;28;20055;-80
2023/05/23 09:01:12;;;;;;;7.22;2.35;;;13.10;99.90;;;;;;5014921;28;20084;-78
2023/05/23 09:03:41;;;;;;;8.70;2.55;;;13.00;99.90;;;;;;5048790;28;20437;-81
2023/05/23 09:06:07;;;;;;;12.45;3.33;;;12.90;99.90;;;;;;5065431;28;20056;-82
2023/05/23 09:08:34;;;;;;;8.13;2.40;;;12.90;99.90;;;;;;5045175;28;20508;-84
2023/05/23 09:11:04;;;;;;;5.90;1.58;;;12.90;99.90;;;;;;5029792;28;20543;-81
2023/05/23 09:13:31;;;;;;;10.57;2.25;;;12.90;99.90;;;;;;5030381;28;20061;-84
2023/05/23 09:16:04;;;;;;;5.47;2.13;;;12.70;99.90;;;;;;5063625;28;20098;-83
2023/05/23 09:18:41;;;;;;;6.93;1.85;;;12.60;99.90;;;;;;5050238;28;20049;-82
2023/05/23 09:21:08;;;;;;;9.98;2.90;;;12.50;99.90;;;;;;5030476;28;20051;-81
2023/05/23 09:23:35;;;;;;;8.45;2.55;;;12.30;99.90;;;;;;5050527;28;20090;-80
2023/05/23 09:26:03;;;;;;;13.98;2.70;;;12.30;99.90;;;;;;5062237;28;20048;-84
2023/05/23 09:28:30;;;;;;;10.07;2.30;;;12.40;99.90;;;;;;5046810;28;20047;-83
2023/05/23 09:31:03;;;;;;;14.35;1.65;;;12.50;99.90;;;;;;5045795;28;20037;-83
2023/05/23 09:33:49;;;;;;;9.25;2.17;;;12.50;99.90;;;;;;5031753;28;20045;-80
2023/05/23 09:36:16;;;;;;;10.30;2.53;;;12.50;99.90;;;;;;5063161;28;20036;-81
2023/05/23 09:38:45;;;;;;;9.93;2.08;;;12.40;99.90;;;;;;5047759;28;20054;-81
2023/05/23 09:41:11;;;;;;;6.88;2.08;;;12.50;99.90;;;;;;5032445;28;20076;-82
2023/05/23 09:43:38;;;;;;;8.25;2.00;;;12.50;99.90;;;;;;5042725;28;20036;-82
2023/05/23 09:46:09;;;;;;;11.23;2.20;;;12.50;99.90;;;;;;5039742;28;20550;-80
2023/05/23 09:48:35;;;;;;;10.10;1.92;;;12.60;99.90;;;;;;5026804;28;20096;-79
2023/05/23 09:51:08;;;;;;;8.88;1.90;;;12.70;99.90;;;;;;5049759;28;20071;-81
2023/05/23 09:53:34;;;;;;;9.43;2.10;;;12.80;99.90;;;;;;5033628;28;20049;-82
2023/05/23 09:56:01;;;;;;;5.03;1.65;;;12.80;99.90;;;;;;5018543;28;20048;-82
2023/05/23 09:58:31;;;;;;;8.85;2.00;;;12.90;99.90;;;;;;5024286;28;20781;-83
2023/05/23 10:01:02;;;;;;;10.95;2.58;;;12.90;99.90;;;;;;5003931;28;20091;-79
2023/05/23 10:03:38;;;;;;;10.73;2.65;;;12.80;99.90;;;;;;5030961;28;20052;-80
2023/05/23 10:06:45;;;;;;;9.63;1.48;;;12.80;99.90;;;;;;5012795;28;20068;-82
2023/05/23 10:09:17;;;;;;;7.53;1.52;;;12.80;99.90;;;;;;5010719;28;20061;-81
2023/05/23 10:11:58;;;;;;;9.85;2.50;;;12.90;99.90;;;;;;5009438;28;20037;-83
2023/05/23 10:14:29;;;;;;;8.68;2.22;;;13.00;99.90;;;;;;5022959;28;20063;-82
2023/05/23 10:17:06;;;;;;;8.48;2.10;;;13.00;99.90;;;;;;5014646;28;20102;-81
2023/05/23 10:19:40;;;;;;;9.80;2.87;;;12.90;99.90;;;;;;5012372;28;20139;-80
2023/05/23 10:22:09;;;;;;;8.00;2.33;;;12.90;99.90;;;;;;5011708;28;20041;-80
2023/05/23 10:24:35;;;;;;;9.23;1.77;;;12.90;99.90;;;;;;5012109;28;20049;-80
2023/05/23 10:27:02;;;;;;;7.20;1.83;;;12.90;99.90;;;;;;5016721;28;20548;-84
2023/05/23 10:29:29;;;;;;;9.20;2.47;;;13.00;99.90;;;;;;5029693;28;20031;-79
2023/05/23 10:31:57;;;;;;;12.18;2.58;;;13.30;99.90;;;;;;5011937;28;20620;-80
2023/05/23 10:34:40;;;;;;;13.27;2.05;;;13.30;99.90;;;;;;5031003;28;20049;-83
2023/05/23 10:37:09;;;;;;;8.18;1.52;;;13.50;99.90;;;;;;5028444;28;20072;-79
2023/05/23 10:40:06;;;;;;;5.28;1.88;;;13.60;99.90;;;;;;5027248;28;20049;-79
2023/05/23 10:42:35;;;;;;;8.95;1.88;;;13.60;99.90;;;;;;5027118;28;20041;-81
2023/05/23 10:45:15;;;;;;;11.85;2.42;;;13.70;99.90;;;;;;5011251;28;20056;-82
2023/05/23 10:47:41;;;;;;;7.38;2.28;;;13.50;99.90;;;;;;5046771;28;20045;-82
2023/05/23 10:50:11;;;;;;;12.93;3.65;;;13.50;99.90;;;;;;5014465;28;20154;-81
2023/05/23 10:52:41;;;;;;;11.80;2.00;;;13.50;99.90;;;;;;5027373;28;20033;-81
2023/05/23 10:55:16;;;;;;;8.95;1.63;;;13.50;99.90;;;;;;5030642;28;20080;-80
2023/05/23 10:57:43;;;;;;;5.88;1.60;;;13.50;99.90;;;;;;5033314;28;20052;-82
2023/05/23 11:00:15;;;;;;;13.82;2.20;;;13.50;99.90;;;;;;5034455;28;20721;-84
2023/05/23 11:02:59;;;;;;;13.23;1.85;;;13.60;99.90;;;;;;5014400;28;20048;-84
2023/05/23 11:05:30;;;;;;;4.50;1.58;;;13.70;99.90;;;;;;5050848;28;20049;-81
2023/05/23 11:08:10;;;;;;;6.85;2.00;;;13.70;99.90;;;;;;5053558;28;20037;-79
2023/05/23 11:11:03;;;;;;;9.98;2.17;;;13.40;99.90;;;;;;5047137;28;20049;-81
2023/05/23 11:14:08;;;;;;;8.70;2.83;;;13.20;99.90;;;;;;5033411;28;20064;-81
2023/05/23 11:16:44;;;;;;;6.28;1.88;;;12.90;99.90;;;;;;4976814;28;20082;-81
2023/05/23 11:19:18;;;;;;;7.50;2.10;;;13.00;99.90;;;;;;4979118;28;20468;-81
2023/05/23 11:21:47;;;;;;;11.10;2.30;;;13.30;99.90;;;;;;5005204;28;20110;-80
2023/05/23 11:24:13;;;;;;;6.00;1.98;;;13.40;99.90;;;;;;5033192;28;20041;-81
2023/05/23 11:26:39;;;;;;;10.20;2.58;;;13.30;99.90;;;;;;5021490;28;20064;-82
2023/05/23 11:29:08;;;;;;;6.35;1.90;;;13.20;99.90;;;;;;5045473;28;20036;-81
2023/05/23 11:31:43;;;;;;;5.97;1.67;;;13.30;99.90;;;;;;5033649;28;20676;-83
2023/05/23 11:34:10;;;;;;;9.93;2.58;;;13.50;99.90;;;;;;4998854;28;20526;-84
2023/05/23 11:36:36;;;;;;;10.63;2.10;;;13.40;99.90;;;;;;4979985;28;20164;-82
2023/05/23 11:39:03;;;;;;;10.35;1.80;;;13.50;99.90;;;;;;4997798;28;20212;-82
2023/05/23 11:41:29;;;;;;;8.40;2.25;;;13.30;99.90;;;;;;4962334;28;20457;-81
2023/05/23 11:43:55;;;;;;;10.30;2.25;;;13.20;99.90;;;;;;4985768;28;20178;-85
2023/05/23 11:46:21;;;;;;;8.45;2.47;;;13.10;99.90;;;;;;4986329;28;20144;-83
2023/05/23 11:48:47;;;;;;;8.98;2.35;;;13.30;99.90;;;;;;4988016;28;20053;-81
2023/05/23 11:51:14;;;;;;;7.75;2.05;;;13.10;99.90;;;;;;5011250;28;20053;-83
2023/05/23 11:53:41;;;;;;;6.88;2.17;;;13.10;99.90;;;;;;5023525;28;20108;-81
2023/05/23 11:56:07;;;;;;;6.57;1.83;;;;;;;;;;5025494;28;20045;-81
2023/05/23 11:58:35;;;;;;;8.32;2.10;;;13.00;99.90;;;;;;5028158;28;20076;-82
2023/05/23 12:01:09;;;;;;;5.38;1.90;;;13.10;99.90;;;;;;5010187;28;20049;-83
2023/05/23 12:03:47;;;;;;;8.65;1.83;;;13.10;99.90;;;;;;5008586;28;20088;-85
2023/05/23 12:06:23;;;;;;;9.40;2.55;;;13.00;99.90;;;;;;5016284;28;20081;-81
2023/05/23 12:08:50;;;;;;;10.32;2.88;;;13.00;99.90;;;;;;5048863;28;20056;-83
2023/05/23 12:11:16;;;;;;;7.50;1.23;;;13.10;99.90;;;;;;5046929;28;20060;-82
2023/05/23 12:13:42;;;;;;;9.73;2.35;;;13.10;99.90;;;;;;5023020;28;20052;-85
2023/05/23 12:16:07;;;;;;;11.15;3.17;;;13.00;99.90;;;;;;5041751;28;20495;-81
2023/05/23 12:18:36;;;;;;;9.23;1.70;;;13.20;99.90;;;;;;5027312;28;20178;-82
2023/05/23 12:21:06;;;;;;;5.40;1.70;;;13.40;99.90;;;;;;5044450;28;20063;-83
2023/05/23 12:23:34;;;;;;;8.85;2.20;;;13.60;99.90;;;;;;5059673;28;20170;-83
2023/05/23 12:26:11;;;;;;;5.00;1.38;;;13.50;99.90;;;;;;5076514;28;20402;-80
2023/05/23 12:28:41;;;;;;;8.03;2.07;;;13.50;99.90;;;;;;5076017;28;20519;-85
2023/05/23 12:31:20;;;;;;;9.45;1.98;;;13.20;99.90;;;;;;5043328;28;20832;-81
2023/05/23 12:33:46;;;;;;;10.60;2.35;;;13.30;99.90;;;;;;5044110;28;20082;-84
2023/05/23 12:36:13;;;;;;;7.70;2.00;;;13.20;99.90;;;;;;5060151;28;20123;-83
2023/05/23 12:38:44;;;;;;;10.35;2.20;;;13.30;99.90;;;;;;5019377;28;20523;-83
2023/05/23 12:41:20;;;;;;;9.20;1.58;;;13.40;99.90;;;;;;5043499;28;20048;-81
2023/05/23 12:43:51;;;;;;;6.97;2.40;;;13.50;99.90;;;;;;5046657;28;20087;-81
2023/05/23 12:46:19;;;;;;;7.28;1.88;;;13.60;99.90;;;;;;5029954;28;20044;-81
2023/05/23 12:48:46;;;;;;;;;;;13.70;99.90;;;;;;5028140;28;20060;-82
2023/05/23 12:51:12;;;;;;;5.68;1.60;;;13.60;99.90;;;;;;5017630;28;20405;-82
2023/05/23 12:53:38;;;;;;;7.20;1.63;;;13.50;99.90;;;;;;5027808;28;20115;-84
2023/05/23 12:56:04;;;;;;;9.30;2.10;;;13.40;99.90;;;;;;5020384;28;20124;-82
2023/05/23 12:58:31;;;;;;;7.43;1.77;;;13.50;99.90;;;;;;5000480;28;20041;-81
2023/05/23 13:00:57;;;;;;;6.55;2.00;;;13.50;99.90;;;;;;5029110;28;20049;-80